createdAt,value
2023-03-13T00:01:40.199Z,10.10
2023-03-13T00:04:07.133Z,10.29
2023-03-13T00:06:36.711Z,10.36
2023-03-13T00:09:05.594Z,10.39
2023-03-13T00:11:32.522Z,10.18
2023-03-13T00:14:00.729Z,10.29
2023-03-13T00:16:27.343Z,10.10
2023-03-13T00:18:55.122Z,10.13
2023-03-13T00:21:23.807Z,10.22
2023-03-13T00:23:50.909Z,10.20
2023-03-13T00:26:19.976Z,10.25
2023-03-13T00:28:46.851Z,9.73
2023-03-13T00:31:15.706Z,9.76
2023-03-13T00:33:47.829Z,9.72
2023-03-13T00:36:19.633Z,9.88
2023-03-13T00:38:46.070Z,9.99
2023-03-13T00:41:15.506Z,9.97
2023-03-13T00:43:43.549Z,9.96
2023-03-13T00:46:10.927Z,9.93
2023-03-13T00:48:38.221Z,9.95
2023-03-13T00:51:05.628Z,10.09
2023-03-13T00:53:32.439Z,9.97
2023-03-13T00:56:05.365Z,9.60
2023-03-13T00:58:37.921Z,10.09
2023-03-13T01:01:24.623Z,9.80
2023-03-13T01:03:57.041Z,10.15
2023-03-13T01:06:26.275Z,10.10
2023-03-13T01:08:53.007Z,10.36
2023-03-13T01:11:21.988Z,10.24
2023-03-13T01:13:48.810Z,10.45
2023-03-13T01:16:18.732Z,10.42
2023-03-13T01:18:47.608Z,10.36
2023-03-13T01:21:15.640Z,10.60
2023-03-13T01:23:42.255Z,10.59
2023-03-13T01:26:09.263Z,10.63
2023-03-13T01:28:36.480Z,10.24
2023-03-13T01:31:14.836Z,10.21
2023-03-13T01:33:42.077Z,10.24
2023-03-13T01:36:08.935Z,10.09
2023-03-13T01:38:35.885Z,9.99
2023-03-13T01:41:03.535Z,10.01
2023-03-13T01:43:32.115Z,10.17
2023-03-13T01:45:59.865Z,10.43
2023-03-13T01:48:31.934Z,10.22
2023-03-13T01:51:01.440Z,10.29
2023-03-13T01:53:31.304Z,10.22
2023-03-13T01:55:59.870Z,10.48
2023-03-13T01:58:29.143Z,10.24
2023-03-13T02:00:55.717Z,10.26
2023-03-13T02:03:24.096Z,10.11
2023-03-13T02:05:51.010Z,10.11
2023-03-13T02:08:42.873Z,10.20
2023-03-13T02:11:35.848Z,10.61
2023-03-13T02:14:04.424Z,10.20
2023-03-13T02:16:33.204Z,9.90
2023-03-13T02:19:02.026Z,9.76
2023-03-13T02:21:40.466Z,10.05
2023-03-13T02:24:23.307Z,10.26
2023-03-13T02:26:49.828Z,10.10
2023-03-13T02:29:16.190Z,10.24
2023-03-13T02:31:42.973Z,9.92
2023-03-13T02:34:10.907Z,9.90
2023-03-13T02:36:37.589Z,9.89
2023-03-13T02:39:06.108Z,9.94
2023-03-13T02:41:34.591Z,10.11
2023-03-13T02:44:01.086Z,10.74
2023-03-13T02:46:27.705Z,10.58
2023-03-13T02:48:56.220Z,10.50
2023-03-13T02:51:25.589Z,10.50
2023-03-13T02:53:55.898Z,10.68
2023-03-13T02:56:25.568Z,10.54
2023-03-13T02:58:51.942Z,10.77
2023-03-13T03:01:18.595Z,10.48
2023-03-13T03:03:44.994Z,10.39
2023-03-13T03:06:11.764Z,10.69
2023-03-13T03:08:38.193Z,10.88
2023-03-13T03:11:05.618Z,10.78
2023-03-13T03:13:31.986Z,10.48
2023-03-13T03:15:58.409Z,10.59
2023-03-13T03:18:25.395Z,10.30
2023-03-13T03:20:51.785Z,10.27
2023-03-13T03:23:18.133Z,10.19
2023-03-13T03:25:44.565Z,10.65
2023-03-13T03:28:10.870Z,10.84
2023-03-13T03:30:37.171Z,10.86
2023-03-13T03:33:03.858Z,10.62
2023-03-13T03:35:30.287Z,10.88
2023-03-13T03:37:56.688Z,10.99
2023-03-13T03:40:23.338Z,10.94
2023-03-13T03:42:50.004Z,10.97
2023-03-13T03:45:16.503Z,10.97
2023-03-13T03:47:42.818Z,10.80
2023-03-13T03:50:10.161Z,10.92
2023-03-13T03:52:37.417Z,11.15
2023-03-13T03:55:03.969Z,11.30
2023-03-13T03:57:30.554Z,11.43
2023-03-13T03:59:56.926Z,11.17
2023-03-13T04:02:23.620Z,11.26
2023-03-13T04:04:50.113Z,11.10
2023-03-13T04:07:16.424Z,11.51
2023-03-13T04:09:42.796Z,11.55
2023-03-13T04:12:09.360Z,11.14
2023-03-13T04:14:35.695Z,11.62
2023-03-13T04:17:02.070Z,11.24
2023-03-13T04:19:28.553Z,11.25
2023-03-13T04:21:54.933Z,11.10
2023-03-13T04:24:21.368Z,11.31
2023-03-13T04:26:47.799Z,11.29
2023-03-13T04:29:14.225Z,11.46
2023-03-13T04:31:40.532Z,11.25
2023-03-13T04:34:06.952Z,11.34
2023-03-13T04:36:33.265Z,10.86
2023-03-13T04:38:59.832Z,10.72
2023-03-13T04:41:26.218Z,10.89
2023-03-13T04:43:52.622Z,10.81
2023-03-13T04:46:18.970Z,10.83
2023-03-13T04:48:45.562Z,10.55
2023-03-13T04:51:12.208Z,10.23
2023-03-13T04:53:38.678Z,10.33
2023-03-13T04:56:05.542Z,10.14
2023-03-13T04:58:32.242Z,10.28
2023-03-13T05:00:58.672Z,9.78
2023-03-13T05:03:25.065Z,9.70
2023-03-13T05:05:51.606Z,9.51
2023-03-13T05:08:19.184Z,9.70
2023-03-13T05:10:46.829Z,9.67
2023-03-13T05:13:13.343Z,10.01
2023-03-13T05:15:39.688Z,9.99
2023-03-13T05:18:06.128Z,9.61
2023-03-13T05:20:32.471Z,9.91
2023-03-13T05:22:58.825Z,9.69
2023-03-13T05:25:25.288Z,10.07
2023-03-13T05:27:51.592Z,9.76
2023-03-13T05:30:18.094Z,9.94
2023-03-13T05:32:45.178Z,10.10
2023-03-13T05:35:11.581Z,10.18
2023-03-13T05:37:40.825Z,10.04
2023-03-13T05:40:08.746Z,10.21
2023-03-13T05:42:35.305Z,10.21
2023-03-13T05:45:01.676Z,10.29
2023-03-13T05:47:28.163Z,10.37
2023-03-13T05:49:54.579Z,10.37
2023-03-13T05:52:21.137Z,10.39
2023-03-13T05:54:48.018Z,10.51
2023-03-13T05:57:14.499Z,10.53
2023-03-13T05:59:40.901Z,10.41
2023-03-13T06:02:07.275Z,10.45
2023-03-13T06:04:33.905Z,10.48
2023-03-13T06:07:00.767Z,10.54
2023-03-13T06:09:27.383Z,10.65
2023-03-13T06:11:53.788Z,10.87
2023-03-13T06:14:20.106Z,10.90
2023-03-13T06:16:46.617Z,10.79
2023-03-13T06:19:13.179Z,10.77
2023-03-13T06:21:40.034Z,10.79
2023-03-13T06:24:06.888Z,10.87
2023-03-13T06:26:33.545Z,11.02
2023-03-13T06:28:59.936Z,10.88
2023-03-13T06:31:26.745Z,11.03
2023-03-13T06:33:54.659Z,11.10
2023-03-13T06:36:22.987Z,10.96
2023-03-13T06:38:50.942Z,11.22
2023-03-13T06:41:17.676Z,11.26
2023-03-13T06:43:44.737Z,11.37
2023-03-13T06:46:17.567Z,11.25
2023-03-13T06:48:44.105Z,11.30
2023-03-13T06:51:20.052Z,11.20
2023-03-13T06:53:47.087Z,11.14
2023-03-13T06:56:13.437Z,10.91
2023-03-13T06:58:40.476Z,10.86
2023-03-13T07:01:08.733Z,11.28
2023-03-13T07:03:36.277Z,11.05
2023-03-13T07:06:03.767Z,10.78
2023-03-13T07:08:31.119Z,11.01
2023-03-13T07:11:04.720Z,11.16
2023-03-13T07:13:32.040Z,11.37
2023-03-13T07:16:02.904Z,11.82
2023-03-13T07:18:31.214Z,11.69
2023-03-13T07:21:00.272Z,12.08
2023-03-13T07:23:29.344Z,11.89
2023-03-13T07:25:58.681Z,12.12
2023-03-13T07:28:25.837Z,12.19
2023-03-13T07:30:52.706Z,11.91
2023-03-13T07:33:19.569Z,12.22
2023-03-13T07:35:52.800Z,12.38
2023-03-13T07:38:20.096Z,12.45
2023-03-13T07:40:51.793Z,12.41
2023-03-13T07:43:19.447Z,12.49
2023-03-13T07:45:58.133Z,12.44
2023-03-13T07:48:28.622Z,12.44
2023-03-13T07:50:56.090Z,12.65
2023-03-13T07:53:23.962Z,12.58
2023-03-13T07:56:05.490Z,12.49
2023-03-13T07:58:35.025Z,12.80
2023-03-13T08:01:08.915Z,12.61
2023-03-13T08:03:35.716Z,12.71
2023-03-13T08:06:10.657Z,12.67
2023-03-13T08:08:38.018Z,12.63
2023-03-13T08:11:07.731Z,12.41
2023-03-13T08:13:36.418Z,12.81
2023-03-13T08:16:20.075Z,12.61
2023-03-13T08:18:49.261Z,12.48
2023-03-13T08:21:18.245Z,12.69
2023-03-13T08:23:45.067Z,12.79
2023-03-13T08:26:13.803Z,12.63
2023-03-13T08:28:40.465Z,12.76
2023-03-13T08:31:14.773Z,12.53
2023-03-13T08:33:43.275Z,12.46
2023-03-13T08:36:19.090Z,12.54
2023-03-13T08:38:47.280Z,12.59
2023-03-13T08:41:16.656Z,12.66
2023-03-13T08:43:43.061Z,12.73
2023-03-13T08:46:10.540Z,12.75
2023-03-13T08:48:37.128Z,12.67
2023-03-13T08:51:13.569Z,12.87
2023-03-13T08:53:42.726Z,12.87
2023-03-13T08:56:11.151Z,12.93
2023-03-13T08:58:38.599Z,13.05
2023-03-13T09:01:09.437Z,13.15
2023-03-13T09:03:36.514Z,13.10
2023-03-13T09:06:03.694Z,13.17
2023-03-13T09:08:31.591Z,13.23
2023-03-13T09:11:03.989Z,13.19
2023-03-13T09:13:32.188Z,13.25
2023-03-13T09:16:01.061Z,13.25
2023-03-13T09:18:28.072Z,13.37
2023-03-13T09:20:55.119Z,13.30
2023-03-13T09:23:22.556Z,13.26
2023-03-13T09:25:52.840Z,13.19
2023-03-13T09:28:19.689Z,13.31
2023-03-13T09:30:47.211Z,13.35
2023-03-13T09:33:13.980Z,13.44
2023-03-13T09:35:40.729Z,13.15
2023-03-13T09:38:08.207Z,13.62
2023-03-13T09:40:56.505Z,13.82
2023-03-13T09:43:48.277Z,13.72
2023-03-13T09:46:35.945Z,13.87
2023-03-13T09:49:14.059Z,13.89
2023-03-13T09:51:43.607Z,13.89
2023-03-13T09:54:22.348Z,13.95
2023-03-13T09:57:00.178Z,13.95
2023-03-13T09:59:29.445Z,14.13
2023-03-13T10:01:59.032Z,14.08
2023-03-13T10:04:41.906Z,14.39
2023-03-13T10:07:12.103Z,14.55
2023-03-13T10:09:38.769Z,14.79
2023-03-13T10:12:14.664Z,15.19
2023-03-13T10:15:17.254Z,15.89
2023-03-13T10:17:44.124Z,16.09
2023-03-13T10:20:10.726Z,15.89
2023-03-13T10:22:40.040Z,15.81
2023-03-13T10:25:24.527Z,15.67
2023-03-13T10:27:51.632Z,15.40
2023-03-13T10:30:26.521Z,15.34
2023-03-13T10:32:59.898Z,15.43
2023-03-13T10:35:33.719Z,15.24
2023-03-13T10:38:06.145Z,15.40
2023-03-13T10:40:32.706Z,15.46
2023-03-13T10:43:07.879Z,15.46
2023-03-13T10:45:36.648Z,15.56
2023-03-13T10:48:12.680Z,15.67
2023-03-13T10:50:46.938Z,15.37
2023-03-13T10:53:34.236Z,15.52
2023-03-13T10:56:04.612Z,15.32
2023-03-13T10:58:37.853Z,15.20
2023-03-13T11:01:16.741Z,15.42
2023-03-13T11:03:44.035Z,15.23
2023-03-13T11:06:28.863Z,15.31
2023-03-13T11:09:12.951Z,15.33
2023-03-13T11:11:48.969Z,15.30
2023-03-13T11:14:18.875Z,14.90
2023-03-13T11:17:02.016Z,14.73
2023-03-13T11:19:53.727Z,15.04
2023-03-13T11:22:29.684Z,14.99
2023-03-13T11:25:20.444Z,15.08
2023-03-13T11:28:03.498Z,15.00
2023-03-13T11:31:07.343Z,14.74
2023-03-13T11:33:45.001Z,15.14
2023-03-13T11:36:19.557Z,15.08
2023-03-13T11:38:53.885Z,15.32
2023-03-13T11:41:51.793Z,15.61
2023-03-13T11:44:51.847Z,15.98
2023-03-13T11:47:27.760Z,16.03
2023-03-13T11:50:18.552Z,16.21
2023-03-13T11:53:15.008Z,16.43
2023-03-13T11:55:52.229Z,16.04
2023-03-13T11:58:39.076Z,16.22
2023-03-13T12:01:19.662Z,15.93
2023-03-13T12:04:07.570Z,15.97
2023-03-13T12:06:52.204Z,15.98
2023-03-13T12:09:30.658Z,15.76
2023-03-13T12:12:10.728Z,15.89
2023-03-13T12:14:42.544Z,15.78
2023-03-13T12:17:35.876Z,15.95
2023-03-13T12:20:20.033Z,15.65
2023-03-13T12:23:43.401Z,16.01
2023-03-13T12:26:23.691Z,15.44
2023-03-13T12:29:24.700Z,15.90
2023-03-13T12:31:57.776Z,15.88
2023-03-13T12:34:39.326Z,15.98
2023-03-13T12:37:39.000Z,15.93
2023-03-13T12:40:21.211Z,16.01
2023-03-13T12:43:06.226Z,15.83
2023-03-13T12:45:36.535Z,15.80
2023-03-13T12:48:23.053Z,16.09
2023-03-13T12:51:11.068Z,15.97
2023-03-13T12:54:08.427Z,16.06
2023-03-13T12:57:05.086Z,15.94
2023-03-13T13:00:00.108Z,16.02
2023-03-13T13:02:29.558Z,16.17
2023-03-13T13:04:58.555Z,15.84
2023-03-13T13:07:33.504Z,16.05
2023-03-13T13:10:09.443Z,16.36
2023-03-13T13:12:43.958Z,16.11
2023-03-13T13:15:25.196Z,16.22
2023-03-13T13:17:59.105Z,15.91
2023-03-13T13:20:41.036Z,15.99
2023-03-13T13:23:27.875Z,16.25
2023-03-13T13:25:57.218Z,15.99
2023-03-13T13:28:32.744Z,15.78
2023-03-13T13:30:59.669Z,15.69
2023-03-13T13:33:29.404Z,15.89
2023-03-13T13:36:20.628Z,15.85
2023-03-13T13:38:48.446Z,15.57
2023-03-13T13:41:14.683Z,15.98
2023-03-13T13:43:46.248Z,15.89
2023-03-13T13:46:19.356Z,15.82
2023-03-13T13:48:45.833Z,15.73
2023-03-13T13:51:13.149Z,15.84
2023-03-13T13:54:00.691Z,15.83
2023-03-13T13:56:46.794Z,15.88
2023-03-13T13:59:22.283Z,15.94
2023-03-13T14:01:51.877Z,15.46
2023-03-13T14:04:30.833Z,15.34
2023-03-13T14:07:01.707Z,15.47
2023-03-13T14:09:40.584Z,15.88
2023-03-13T14:12:28.180Z,15.80
2023-03-13T14:15:16.848Z,15.48
2023-03-13T14:18:10.363Z,15.68
2023-03-13T14:20:39.900Z,15.62
2023-03-13T14:23:09.224Z,15.80
2023-03-13T14:25:47.596Z,15.67
2023-03-13T14:28:25.923Z,15.57
2023-03-13T14:30:57.858Z,15.72
2023-03-13T14:33:26.312Z,15.71
2023-03-13T14:35:53.030Z,15.73
2023-03-13T14:38:26.723Z,15.78
2023-03-13T14:40:54.760Z,15.62
2023-03-13T14:43:42.230Z,15.81
2023-03-13T14:46:23.892Z,15.54
2023-03-13T14:48:54.810Z,15.36
2023-03-13T14:51:28.083Z,15.78
2023-03-13T14:53:57.005Z,15.78
2023-03-13T14:56:36.708Z,15.75
2023-03-13T14:59:29.518Z,15.50
2023-03-13T15:02:19.457Z,15.81
2023-03-13T15:04:57.765Z,15.86
2023-03-13T15:07:27.399Z,15.93
2023-03-13T15:09:54.214Z,15.45
2023-03-13T15:12:22.898Z,15.79
2023-03-13T15:14:51.266Z,15.47
2023-03-13T15:17:25.608Z,15.84
2023-03-13T15:20:00.913Z,15.74
2023-03-13T15:22:47.661Z,15.91
2023-03-13T15:25:23.976Z,16.21
2023-03-13T15:27:50.883Z,16.19
2023-03-13T15:30:19.633Z,15.85
2023-03-13T15:32:46.591Z,15.78
2023-03-13T15:35:29.147Z,16.04
2023-03-13T15:38:00.953Z,15.97
2023-03-13T15:40:28.589Z,16.09
2023-03-13T15:42:55.224Z,15.73
2023-03-13T15:45:22.191Z,15.64
2023-03-13T15:47:48.580Z,15.80
2023-03-13T15:50:18.006Z,15.37
2023-03-13T15:52:44.467Z,15.20
2023-03-13T15:55:12.309Z,14.95
2023-03-13T15:57:46.210Z,14.59
2023-03-13T16:00:25.853Z,14.57
2023-03-13T16:02:52.402Z,14.71
2023-03-13T16:05:19.133Z,14.47
2023-03-13T16:07:45.458Z,14.29
2023-03-13T16:10:19.033Z,14.34
2023-03-13T16:12:45.550Z,14.04
2023-03-13T16:15:12.077Z,14.06
2023-03-13T16:17:38.529Z,13.93
2023-03-13T16:20:12.488Z,13.99
2023-03-13T16:22:39.269Z,14.10
2023-03-13T16:25:06.250Z,14.11
2023-03-13T16:27:32.720Z,13.96
2023-03-13T16:29:59.090Z,13.95
2023-03-13T16:32:25.523Z,14.01
2023-03-13T16:34:52.267Z,14.15
2023-03-13T16:37:21.037Z,14.25
2023-03-13T16:39:48.281Z,13.98
2023-03-13T16:42:14.662Z,13.75
2023-03-13T16:44:41.171Z,13.72
2023-03-13T16:47:33.925Z,13.74
2023-03-13T16:50:00.532Z,13.82
2023-03-13T16:52:27.088Z,13.83
2023-03-13T16:54:53.609Z,13.94
2023-03-13T16:57:24.810Z,13.74
2023-03-13T16:59:52.467Z,13.81
2023-03-13T17:02:20.720Z,13.83
2023-03-13T17:04:48.907Z,13.81
2023-03-13T17:07:24.854Z,14.13
2023-03-13T17:09:51.680Z,14.11
2023-03-13T17:12:19.013Z,14.04
2023-03-13T17:14:45.803Z,14.39
2023-03-13T17:17:15.027Z,14.12
2023-03-13T17:19:41.452Z,13.97
2023-03-13T17:22:11.749Z,14.01
2023-03-13T17:24:38.358Z,14.63
2023-03-13T17:27:04.914Z,14.36
2023-03-13T17:29:32.396Z,14.62
2023-03-13T17:31:58.806Z,14.13
2023-03-13T17:34:25.390Z,14.48
2023-03-13T17:36:51.785Z,14.33
2023-03-13T17:39:18.097Z,14.27
2023-03-13T17:41:44.503Z,14.01
2023-03-13T17:44:10.916Z,14.57
2023-03-13T17:46:45.776Z,14.38
2023-03-13T17:49:17.904Z,14.58
2023-03-13T17:51:44.278Z,14.01
2023-03-13T17:54:11.230Z,13.87
2023-03-13T17:56:40.546Z,14.33
2023-03-13T17:59:12.105Z,14.00
2023-03-13T18:01:38.599Z,14.21
2023-03-13T18:04:05.398Z,14.16
2023-03-13T18:06:38.550Z,13.88
2023-03-13T18:09:08.448Z,13.95
2023-03-13T18:11:37.842Z,13.85
2023-03-13T18:14:05.279Z,14.03
2023-03-13T18:16:44.316Z,14.10
2023-03-13T18:19:19.183Z,13.93
2023-03-13T18:21:48.652Z,13.63
2023-03-13T18:24:15.130Z,13.28
2023-03-13T18:26:42.547Z,14.10
2023-03-13T18:29:18.178Z,13.60
2023-03-13T18:31:44.632Z,13.50
2023-03-13T18:34:12.051Z,13.84
2023-03-13T18:36:38.934Z,13.59
2023-03-13T18:39:06.777Z,13.35
2023-03-13T18:41:33.742Z,13.21
2023-03-13T18:44:00.280Z,13.61
2023-03-13T18:46:28.391Z,13.25
2023-03-13T18:48:54.869Z,13.22
2023-03-13T18:51:23.446Z,13.34
2023-03-13T18:53:50.288Z,13.56
2023-03-13T18:56:28.160Z,13.37
2023-03-13T18:58:55.813Z,13.30
2023-03-13T19:01:26.403Z,13.47
2023-03-13T19:03:53.359Z,13.36
2023-03-13T19:06:26.145Z,13.48
2023-03-13T19:08:57.903Z,13.39
2023-03-13T19:11:28.099Z,13.38
2023-03-13T19:13:54.997Z,14.12
2023-03-13T19:16:25.305Z,14.33
2023-03-13T19:18:52.054Z,14.14
2023-03-13T19:21:27.115Z,13.97
2023-03-13T19:23:54.685Z,14.37
2023-03-13T19:26:21.383Z,14.44
2023-03-13T19:28:47.969Z,14.55
2023-03-13T19:31:14.347Z,14.16
2023-03-13T19:33:40.974Z,14.12
2023-03-13T19:36:18.574Z,13.97
2023-03-13T19:38:45.796Z,13.97
2023-03-13T19:41:13.807Z,14.40
2023-03-13T19:43:40.895Z,14.53
2023-03-13T19:46:22.267Z,14.66
2023-03-13T19:48:49.325Z,14.69
2023-03-13T19:51:15.683Z,14.87
2023-03-13T19:53:42.199Z,15.12
2023-03-13T19:56:23.404Z,14.85
2023-03-13T19:58:52.736Z,15.06
2023-03-13T20:01:19.446Z,15.20
2023-03-13T20:03:47.363Z,14.67
2023-03-13T20:06:17.794Z,14.53
2023-03-13T20:08:45.330Z,15.09
2023-03-13T20:11:13.144Z,15.00
2023-03-13T20:13:40.308Z,15.00
2023-03-13T20:16:07.464Z,15.21
2023-03-13T20:18:33.866Z,15.12
2023-03-13T20:21:00.370Z,14.98
2023-03-13T20:23:26.777Z,15.09
2023-03-13T20:25:53.245Z,15.11
2023-03-13T20:28:19.643Z,14.47
2023-03-13T20:30:45.997Z,14.72
2023-03-13T20:33:12.736Z,14.92
2023-03-13T20:35:40.534Z,15.09
2023-03-13T20:38:07.195Z,15.10
2023-03-13T20:40:34.834Z,14.85
2023-03-13T20:43:02.096Z,14.54
2023-03-13T20:45:29.804Z,14.17
2023-03-13T20:47:57.018Z,14.46
2023-03-13T20:50:23.561Z,14.41
2023-03-13T20:52:50.202Z,14.33
2023-03-13T20:55:17.186Z,13.99
2023-03-13T20:57:43.492Z,14.39
2023-03-13T21:00:10.431Z,14.38
2023-03-13T21:02:36.863Z,14.06
2023-03-13T21:05:03.681Z,13.73
2023-03-13T21:07:30.088Z,13.62
2023-03-13T21:09:56.467Z,14.04
2023-03-13T21:12:22.869Z,13.92
2023-03-13T21:14:49.280Z,13.62
2023-03-13T21:17:15.738Z,14.12
2023-03-13T21:19:42.131Z,14.04
2023-03-13T21:22:08.532Z,13.74
2023-03-13T21:24:34.842Z,14.19
2023-03-13T21:27:01.778Z,13.97
2023-03-13T21:29:28.106Z,13.67
2023-03-13T21:31:54.680Z,13.78
2023-03-13T21:34:21.017Z,13.67
2023-03-13T21:36:47.406Z,13.51
2023-03-13T21:39:13.721Z,14.08
2023-03-13T21:41:40.229Z,14.00
2023-03-13T21:44:06.660Z,14.01
2023-03-13T21:46:33.707Z,13.58
2023-03-13T21:49:00.769Z,13.41
2023-03-13T21:51:28.006Z,13.65
2023-03-13T21:53:54.813Z,13.67
2023-03-13T21:56:21.244Z,13.45
2023-03-13T21:58:47.911Z,13.57
2023-03-13T22:01:15.811Z,13.92
2023-03-13T22:03:42.444Z,13.85
2023-03-13T22:06:19.713Z,13.90
2023-03-13T22:08:47.736Z,13.50
2023-03-13T22:11:14.260Z,13.38
2023-03-13T22:13:40.895Z,13.82
2023-03-13T22:16:07.963Z,13.87
2023-03-13T22:18:34.712Z,13.58
2023-03-13T22:21:01.139Z,13.79
2023-03-13T22:23:27.592Z,13.78
2023-03-13T22:25:58.325Z,13.95
2023-03-13T22:28:25.841Z,13.36
2023-03-13T22:30:52.543Z,13.77
2023-03-13T22:33:19.235Z,13.72
2023-03-13T22:35:50.002Z,13.63
2023-03-13T22:38:16.483Z,14.12
2023-03-13T22:40:42.867Z,13.49
2023-03-13T22:43:09.343Z,14.11
2023-03-13T22:45:35.677Z,13.89
2023-03-13T22:48:02.029Z,13.71
2023-03-13T22:50:28.515Z,13.78
2023-03-13T22:52:54.818Z,13.60
2023-03-13T22:55:21.164Z,13.68
2023-03-13T22:57:47.870Z,13.31
2023-03-13T23:00:15.069Z,13.21
2023-03-13T23:02:41.486Z,13.25
2023-03-13T23:05:08.334Z,13.49
2023-03-13T23:07:34.767Z,13.06
2023-03-13T23:10:01.104Z,12.85
2023-03-13T23:12:27.622Z,13.12
2023-03-13T23:14:53.940Z,13.18
2023-03-13T23:17:20.700Z,12.88
2023-03-13T23:19:47.150Z,12.80
2023-03-13T23:22:13.520Z,12.86
2023-03-13T23:24:40.046Z,12.74
2023-03-13T23:27:06.729Z,12.82
2023-03-13T23:29:33.100Z,13.05
2023-03-13T23:31:59.517Z,13.03
2023-03-13T23:34:25.844Z,12.99
2023-03-13T23:36:52.416Z,12.72
2023-03-13T23:39:18.818Z,12.71
2023-03-13T23:41:45.383Z,12.80
2023-03-13T23:44:11.778Z,13.06
2023-03-13T23:46:38.248Z,13.19
2023-03-13T23:49:04.648Z,13.08
2023-03-13T23:51:30.954Z,13.04
2023-03-13T23:53:57.876Z,12.97
2023-03-13T23:56:24.447Z,12.85
2023-03-13T23:58:53.069Z,12.85
